Time;durP1;ratioP1;P1;durP2;ratioP2;P2;SDS_P1;SDS_P2;PMS_P1;PMS_P2;Temp;Humidity;BMP_temperature;BMP_pressure;BME280_temperature;BME280_humidity;BME280_pressure;Samples;Min_cycle;Max_cycle;Signal;HPM_P1;HPM_P2
2022/05/03 07:02:05;;;;;;;;;16.00;16.00;;;;;17.90;53.42;101459.47;5094468;27;45720;-72
2022/05/03 07:04:31;;;;;;;;;14.25;12.25;;;;;18.07;53.48;101451.16;5087720;27;45664;-73
2022/05/03 07:06:56;;;;;;;;;14.25;11.25;;;;;18.36;53.15;101461.56;5078752;27;45386;-73
2022/05/03 07:09:21;;;;;;;;;15.75;14.50;;;;;18.68;52.72;101461.78;5086750;27;45674;-73
2022/05/03 07:11:47;;;;;;;;;15.50;11.50;;;;;19.04;52.75;101459.06;5089342;27;45504;-73
2022/05/03 07:14:12;;;;;;;;;13.00;13.00;;;;;19.41;52.04;101466.03;5090245;27;45427;-73
2022/05/03 07:16:37;;;;;;;;;10.75;10.50;;;;;19.77;51.38;101467.72;5089308;27;45569;-74
2022/05/03 07:24:30;;;;;;;;;12.25;11.00;;;;;20.85;49.56;101473.97;5088185;27;45549;-71
2022/05/03 07:26:56;;;;;;;;;17.50;12.00;;;;;21.12;49.48;101467.22;5088435;27;50790;-73
2022/05/03 07:29:21;;;;;;;;;20.75;16.25;;;;;21.42;47.92;101481.69;5088018;27;45347;-73
2022/05/03 07:31:47;;;;;;;;;16.25;16.25;;;;;21.68;46.77;101488.44;5091492;27;45557;-72
2022/05/03 07:34:12;;;;;;;;;36.25;32.75;;;;;21.89;43.24;101480.28;5083737;27;45616;-73
2022/05/03 07:36:39;;;;;;;;;31.75;28.00;;;;;21.93;43.20;101484.41;5088791;27;45505;-74
2022/05/03 07:39:04;;;;;;;;;30.50;24.75;;;;;21.98;43.56;101483.97;5088044;27;45616;-73
2022/05/03 07:41:30;;;;;;;;;24.50;23.75;;;;;22.07;43.17;101487.72;5089175;27;45326;-73
2022/05/03 07:43:55;;;;;;;;;27.50;25.00;;;;;22.13;43.65;101487.13;5088998;27;45428;-73
2022/05/03 07:46:20;;;;;;;;;25.00;23.25;;;;;22.22;43.33;101474.63;5089378;27;45370;-73
2022/05/03 07:48:46;;;;;;;;;22.25;20.00;;;;;22.35;43.21;101486.00;5086263;27;45580;-72
2022/05/03 07:51:12;;;;;;;;;25.50;21.75;;;;;22.50;43.24;101477.47;5093488;27;56429;-73
2022/05/03 07:53:39;;;;;;;;;23.75;21.75;;;;;22.63;43.40;101474.47;5087278;27;45464;-73
2022/05/03 07:56:04;;;;;;;;;26.50;26.50;;;;;22.74;42.74;101482.44;5088722;27;45423;-72
2022/05/03 07:58:30;;;;;;;;;26.25;23.00;;;;;22.87;42.42;101474.00;5084571;27;45491;-73
2022/05/03 08:00:55;;;;;;;;;19.50;18.75;;;;;23.02;42.84;101482.50;5084759;27;45484;-72
2022/05/03 08:03:20;;;;;;;;;24.50;23.25;;;;;23.15;42.21;101478.63;5086563;27;45763;-72
2022/05/03 08:05:45;;;;;;;;;22.00;21.25;;;;;23.27;42.32;101476.59;5088299;27;45471;-73
2022/05/03 08:08:11;;;;;;;;;18.50;18.25;;;;;23.38;42.57;101481.00;5082356;27;45563;-73
2022/05/03 08:10:36;;;;;;;;;22.50;20.00;;;;;23.47;42.28;101477.38;5089021;27;45545;-73
2022/05/03 08:13:02;;;;;;;;;21.00;17.50;;;;;23.60;41.98;101481.56;5072071;27;45823;-72
2022/05/03 08:15:28;;;;;;;;;20.67;17.33;;;;;23.69;41.96;101483.38;5073500;27;45523;-72
2022/05/03 08:17:53;;;;;;;;;21.33;18.33;;;;;23.76;42.23;101473.66;5067310;27;45201;-73
2022/05/03 08:20:18;;;;;;;;;19.67;17.00;;;;;23.80;42.01;101474.19;5075268;28;56143;-72
2022/05/03 08:22:44;;;;;;;;;20.00;16.67;;;;;23.84;41.85;101483.72;5071542;27;45651;-73
2022/05/03 08:25:10;;;;;;;;;21.00;16.75;;;;;23.87;41.63;101488.00;5073086;27;45494;-73
2022/05/03 08:27:38;;;;;;;;;16.33;15.33;;;;;23.91;41.81;101481.25;5071918;27;45576;-72
2022/05/03 08:30:04;;;;;;;;;20.33;16.33;;;;;23.94;41.82;101492.66;5071456;27;51453;-72
2022/05/03 08:32:30;;;;;;;;;17.00;17.00;;;;;24.03;41.73;101485.44;5075093;27;45831;-71
2022/05/03 08:34:55;;;;;;;;;14.00;12.67;;;;;24.11;41.65;101492.00;5073242;28;45386;-73
2022/05/03 08:42:49;;;;;;;;;14.67;14.67;;;;;24.34;41.57;101495.09;5066612;28;45422;-71
2022/05/03 08:45:14;;;;;;;;;18.00;17.33;;;;;24.40;41.45;101496.34;5075051;27;45433;-70
2022/05/03 08:47:41;;;;;;;;;14.00;14.00;;;;;24.43;41.34;101490.56;5074204;27;55602;-73
2022/05/03 08:50:11;;;;;;;;;12.67;12.67;;;;;24.44;41.39;101492.31;5065397;28;47202;-75
2022/05/03 08:52:47;;;;;;;;;20.75;20.75;;;;;24.47;39.46;101491.97;5073354;27;45467;-75
2022/05/03 08:55:13;;;;;;;;;20.67;20.33;;;;;24.48;39.76;101490.94;5073107;27;46474;-73
2022/05/03 08:57:42;;;;;;;;;17.67;17.00;;;;;24.45;39.85;101494.00;5075312;27;45511;-73
2022/05/03 09:00:08;;;;;;;;;15.33;15.33;;;;;24.41;40.35;101490.75;5072328;27;47240;-73
2022/05/03 09:02:33;;;;;;;;;17.67;15.00;;;;;24.44;40.12;101485.00;5074141;28;45398;-72
2022/05/03 09:04:59;;;;;;;;;23.00;18.67;;;;;24.47;40.41;101484.69;5071832;28;45515;-73
2022/05/03 09:07:26;;;;;;;;;16.33;16.33;;;;;24.48;40.54;101499.97;5070109;27;46155;-73
2022/05/03 09:09:53;;;;;;;;;14.33;13.67;;;;;24.46;40.60;101491.13;5070105;28;45465;-73
2022/05/03 09:12:29;;;;;;;;;19.67;16.33;;;;;24.48;40.50;101490.94;5068589;27;45430;-72
2022/05/03 09:15:00;;;;;;;;;16.00;15.67;;;;;24.48;40.74;101490.94;5073094;27;45660;-72
2022/05/03 09:17:46;;;;;;;;;14.33;14.33;;;;;24.50;40.34;101491.66;5075274;28;45402;-73
2022/05/03 09:25:48;;;;;;;;;12.33;12.00;;;;;24.65;40.45;101500.09;5072168;28;51910;-72
2022/05/03 09:28:14;;;;;;;;;16.67;15.67;;;;;24.69;40.57;101500.63;5071475;27;45326;-73
2022/05/03 09:30:50;;;;;;;;;16.00;15.33;;;;;24.77;40.53;101497.94;5073566;28;46201;-73
2022/05/03 09:33:21;;;;;;;;;13.67;13.67;;;;;24.81;40.46;101496.63;5072799;28;45411;-73
2022/05/03 09:35:48;;;;;;;;;15.33;14.33;;;;;24.87;40.53;101492.47;5070940;27;45488;-71
2022/05/03 09:38:14;;;;;;;;;13.33;13.33;;;;;24.91;40.45;101485.72;5072053;28;45482;-70
2022/05/03 09:40:42;;;;;;;;;14.33;13.00;;;;;24.96;40.34;101480.66;5072026;27;45518;-71
2022/05/03 09:43:08;;;;;;;;;16.00;13.00;;;;;24.99;40.26;101484.91;5073082;27;45407;-71
2022/05/03 09:45:35;;;;;;;;;13.33;12.00;;;;;25.04;40.51;101488.00;5070623;27;45382;-72
2022/05/03 09:48:00;;;;;;;;;15.67;11.67;;;;;25.05;40.70;101484.25;5057539;28;45444;-72
2022/05/03 09:50:27;;;;;;;;;12.00;11.33;;;;;25.09;40.51;101482.09;5072472;27;46616;-72
2022/05/03 09:52:53;;;;;;;;;12.33;12.00;;;;;25.11;40.67;101485.47;5072970;27;45559;-72
2022/05/03 09:55:38;;;;;;;;;13.00;13.00;;;;;25.13;40.62;101476.16;5069276;27;45384;-73
2022/05/03 09:58:11;;;;;;;;;10.67;10.67;;;;;25.18;40.54;101470.22;5067736;28;45743;-72
2022/05/03 10:00:41;;;;;;;;;12.33;12.33;;;;;25.22;40.64;101484.34;5072416;27;47248;-72
2022/05/03 10:03:09;;;;;;;;;11.00;9.67;;;;;25.26;40.38;101478.44;5072136;27;45355;-71
2022/05/03 10:05:35;;;;;;;;;14.00;10.33;;;;;25.27;40.61;101474.69;5071897;28;45521;-71
2022/05/03 10:08:02;;;;;;;;;11.00;11.00;;;;;25.27;40.63;101476.56;5073167;27;45557;-70
2022/05/03 10:10:28;;;;;;;;;13.33;13.33;;;;;25.26;40.73;101481.16;5072778;27;46451;-71
2022/05/03 10:12:54;;;;;;;;;10.67;10.67;;;;;25.27;40.58;101476.56;5070165;27;45478;-71
2022/05/03 10:21:03;;;;;;;;;10.00;10.00;;;;;25.24;40.71;101472.31;5070486;28;45794;-70
2022/05/03 10:23:32;;;;;;;;;11.33;11.33;;;;;25.26;40.73;101470.28;5071499;28;45506;-70
2022/05/03 10:25:59;;;;;;;;;14.67;13.00;;;;;25.29;40.96;101473.69;5067644;27;45536;-73
2022/05/03 10:28:45;;;;;;;;;11.33;10.33;;;;;25.30;40.68;101461.81;5067037;28;45524;-72
2022/05/03 10:31:13;;;;;;;;;10.33;10.33;;;;;25.33;40.42;101475.03;5071538;27;48489;-71
2022/05/03 10:33:39;;;;;;;;;10.00;10.00;;;;;25.34;40.30;101469.47;5071240;28;47569;-71
2022/05/03 10:36:34;;;;;;;;;10.00;10.00;;;;;25.34;40.34;101461.31;5061152;27;45687;-71
2022/05/03 10:39:18;;;;;;;;;12.33;11.00;;;;;25.36;40.29;101463.88;5073318;27;45869;-71
2022/05/03 10:42:12;;;;;;;;;11.67;11.00;;;;;25.38;40.19;101470.00;5071410;28;45908;-71
2022/05/03 10:44:46;;;;;;;;;13.33;11.33;;;;;25.41;39.91;101464.22;5069405;28;45443;-71
2022/05/03 10:47:17;;;;;;;;;8.67;7.33;;;;;25.42;39.84;101463.19;5074673;28;45640;-72
2022/05/03 10:50:20;;;;;;;;;9.33;7.33;;;;;25.46;39.82;101461.03;5073436;28;45661;-71
2022/05/03 10:53:09;;;;;;;;;10.33;8.67;;;;;25.47;39.70;101460.84;5070861;27;46073;-71
2022/05/03 10:55:38;;;;;;;;;11.00;10.67;;;;;25.49;39.50;101460.69;5067514;28;45384;-71
2022/05/03 10:58:28;;;;;;;;;13.33;10.67;;;;;25.51;39.30;101459.50;5073654;27;45469;-71
2022/05/03 11:01:18;;;;;;;;;11.33;9.67;;;;;25.52;39.67;101461.22;5064936;28;45389;-71
2022/05/03 11:03:57;;;;;;;;;8.33;8.33;;;;;25.53;39.10;101457.47;5072797;27;46142;-71
2022/05/03 11:06:30;;;;;;;;;9.67;9.00;;;;;25.53;38.70;101452.06;5068688;28;45786;-71
2022/05/03 11:11:44;;;;;;;;;15.67;15.67;;;;;25.46;38.34;101461.03;5067870;28;45465;-73
2022/05/03 11:14:16;;;;;;;;;20.67;20.00;;;;;25.42;37.13;101437.91;5070787;28;46345;-72
2022/05/03 11:17:05;;;;;;;;;20.33;19.67;;;;;25.43;37.25;101450.47;5070124;28;45497;-72
2022/05/03 11:19:51;;;;;;;;;22.00;20.33;;;;;25.46;36.27;101450.16;5066782;27;45644;-72
2022/05/03 11:22:22;;;;;;;;;20.67;19.67;;;;;25.47;36.43;101436.38;5071802;27;45462;-71
2022/05/03 11:24:50;;;;;;;;;18.67;18.33;;;;;25.48;36.51;101446.25;5061810;27;46380;-72
2022/05/03 11:27:16;;;;;;;;;24.00;21.00;;;;;25.51;36.67;101443.19;5070084;27;45710;-72
2022/05/03 11:29:47;;;;;;;;;19.33;17.67;;;;;25.53;37.21;101445.75;5072555;28;45379;-71
2022/05/03 11:32:15;;;;;;;;;18.00;16.33;;;;;25.53;36.79;101427.59;5073144;28;45437;-72
2022/05/03 11:34:40;;;;;;;;;16.00;16.00;;;;;25.58;37.33;101429.00;5071574;27;46073;-71
2022/05/03 11:37:09;;;;;;;;;17.00;17.00;;;;;25.58;37.39;101427.09;5071813;28;45592;-71
2022/05/03 11:39:36;;;;;;;;;17.67;15.33;;;;;25.58;37.48;101424.38;5072188;27;45499;-71
2022/05/03 11:42:03;;;;;;;;;15.67;15.00;;;;;25.55;37.44;101419.31;5060569;28;45732;-72
2022/05/03 11:44:29;;;;;;;;;17.33;15.00;;;;;25.54;37.05;101425.69;5069162;28;45496;-72
2022/05/03 11:46:54;;;;;;;;;9.67;9.33;;;;;25.55;38.05;101427.47;5071220;28;46616;-71
2022/05/03 11:49:21;;;;;;;;;14.67;14.67;;;;;25.56;37.75;101420.13;5075467;28;45312;-71
2022/05/03 11:57:23;;;;;;;;;15.00;12.00;;;;;25.73;37.85;101421.03;5060287;28;45500;-72
2022/05/03 11:59:50;;;;;;;;;12.67;12.33;;;;;25.78;38.00;101418.66;5069120;27;45781;-73
2022/05/03 12:02:19;;;;;;;;;14.33;13.67;;;;;25.83;38.24;101419.00;5073070;28;45521;-73
2022/05/03 12:05:11;;;;;;;;;12.33;12.33;;;;;25.87;37.97;101408.66;5072085;27;45505;-73
2022/05/03 12:07:44;;;;;;;;;15.00;14.00;;;;;25.91;37.80;101404.56;5066311;28;45828;-74
2022/05/03 12:10:30;;;;;;;;;13.00;13.00;;;;;25.95;37.84;101411.38;5073908;27;45327;-72
2022/05/03 12:13:13;;;;;;;;;12.00;11.67;;;;;25.99;38.03;101407.28;5066011;28;45365;-73
2022/05/03 12:15:46;;;;;;;;;12.33;12.33;;;;;26.03;38.05;101405.06;5073689;28;46992;-74
2022/05/03 12:18:20;;;;;;;;;14.00;12.00;;;;;26.10;38.12;101407.97;5074730;27;45627;-74
2022/05/03 12:20:55;;;;;;;;;11.67;11.00;;;;;26.13;37.82;101411.22;5069327;27;45481;-73
2022/05/03 12:23:33;;;;;;;;;15.00;13.00;;;;;26.15;37.94;101400.13;5063166;28;45921;-73
2022/05/03 12:26:00;;;;;;;;;12.00;12.00;;;;;26.16;38.57;101397.25;5072409;27;46407;-73
2022/05/03 12:28:40;;;;;;;;;12.00;12.00;;;;;26.18;38.59;101394.38;5068067;27;45726;-73
2022/05/03 12:31:07;;;;;;;;;11.00;11.00;;;;;26.18;38.49;101395.22;5074431;28;45507;-74
2022/05/03 12:33:32;;;;;;;;;11.00;11.00;;;;;26.21;38.24;101387.75;5074003;28;45988;-74
2022/05/03 12:35:59;;;;;;;;;12.33;11.33;;;;;26.20;38.27;101389.63;5069494;27;45556;-74
2022/05/03 12:38:26;;;;;;;;;10.33;9.33;;;;;26.18;38.48;101388.94;5081669;27;45406;-74
2022/05/03 12:40:54;;;;;;;;;12.33;11.00;;;;;26.16;38.67;101377.38;5074011;27;45557;-73
2022/05/03 12:43:21;;;;;;;;;11.00;11.00;;;;;26.15;38.53;101383.81;5080770;27;45887;-74
2022/05/03 12:46:03;;;;;;;;;9.00;9.00;;;;;26.15;39.03;101383.81;5074237;27;46417;-73
2022/05/03 12:48:31;;;;;;;;;9.67;9.00;;;;;26.13;38.99;101378.56;5071976;28;46966;-73
2022/05/03 12:50:58;;;;;;;;;10.67;10.67;;;;;26.13;39.23;101372.28;5073815;28;45518;-74
2022/05/03 12:53:30;;;;;;;;;11.00;10.00;;;;;26.15;39.16;101368.34;5071703;27;46214;-73
2022/05/03 12:55:58;;;;;;;;;9.33;9.33;;;;;26.18;39.39;101362.59;5072184;27;46212;-75
2022/05/03 12:58:25;;;;;;;;;10.67;10.33;;;;;26.24;39.19;101368.34;5074415;27;45522;-73
2022/05/03 13:00:55;;;;;;;;;9.33;9.33;;;;;26.26;39.16;101355.44;5069101;27;45543;-73
2022/05/03 13:03:21;;;;;;;;;10.67;10.33;;;;;26.31;39.41;101363.94;5072566;27;45791;-73
2022/05/03 13:05:48;;;;;;;;;11.33;11.33;;;;;26.34;39.71;101360.88;5073022;28;46893;-73
2022/05/03 13:08:13;;;;;;;;;11.33;10.00;;;;;26.39;39.56;101357.63;5072968;28;45612;-73
2022/05/03 13:10:39;;;;;;;;;12.00;11.00;;;;;26.42;38.12;101354.56;5072083;28;45758;-75
2022/05/03 13:13:04;;;;;;;;;15.33;15.33;;;;;26.48;36.40;101347.59;5074909;27;45922;-75
2022/05/03 13:15:30;;;;;;;;;12.33;12.33;;;;;26.52;35.62;101355.22;5069414;27;47101;-74
2022/05/03 13:17:57;;;;;;;;;14.33;14.33;;;;;26.54;36.02;101350.47;5069910;28;46252;-73
2022/05/03 13:20:22;;;;;;;;;12.67;12.67;;;;;26.54;35.73;101347.75;5071228;27;45513;-75
2022/05/03 13:22:48;;;;;;;;;13.67;13.67;;;;;26.52;35.90;101348.94;5065371;27;45500;-74
2022/05/03 13:25:13;;;;;;;;;15.00;12.67;;;;;26.51;35.86;101352.69;5051621;27;45641;-75
2022/05/03 13:27:39;;;;;;;;;13.33;12.67;;;;;26.50;35.33;101340.97;5060586;27;45757;-75
2022/05/03 13:30:04;;;;;;;;;12.67;12.67;;;;;26.50;35.76;101348.25;5074996;27;45543;-75
2022/05/03 13:32:31;;;;;;;;;13.67;13.67;;;;;26.48;35.49;101343.00;5070890;27;45483;-76
2022/05/03 13:34:57;;;;;;;;;14.00;14.00;;;;;26.47;35.54;101340.44;5073651;27;45474;-75
2022/05/03 13:43:09;;;;;;;;;17.33;16.67;;;;;26.37;35.41;101333.34;5027881;28;45496;-73
2022/05/03 13:45:34;;;;;;;;;14.67;14.00;;;;;26.34;35.24;101332.81;5029343;28;47186;-76
2022/05/03 13:48:00;;;;;;;;;14.67;13.00;;;;;26.30;35.52;101327.75;5029263;28;45693;-72
2022/05/03 13:50:25;;;;;;;;;14.33;14.00;;;;;26.28;35.34;101326.22;5031041;28;45446;-74
2022/05/03 13:52:50;;;;;;;;;14.00;12.33;;;;;26.25;35.03;101326.56;5027263;28;45413;-73
2022/05/03 13:55:16;;;;;;;;;19.00;15.67;;;;;26.23;35.61;101317.69;5027367;28;45669;-72
2022/05/03 13:57:42;;;;;;;;;16.33;15.00;;;;;26.17;35.25;101328.22;5026385;28;45502;-73
2022/05/03 14:00:10;;;;;;;;;14.67;14.33;;;;;26.07;35.58;101326.72;5016795;28;45381;-73
2022/05/03 14:02:45;;;;;;;;;12.00;12.00;;;;;26.00;35.66;101315.69;5029475;28;45428;-73
2022/05/03 14:05:11;;;;;;;;;14.33;13.00;;;;;25.96;36.18;101317.03;5025774;28;45808;-73
2022/05/03 14:07:36;;;;;;;;;12.67;12.00;;;;;25.95;36.47;101310.72;5031016;28;45464;-72
2022/05/03 14:10:03;;;;;;;;;11.33;11.33;;;;;26.01;36.35;101311.94;5024832;28;45477;-72
2022/05/03 14:12:30;;;;;;;;;12.00;10.67;;;;;26.03;36.37;101318.03;5026595;28;45478;-72
2022/05/03 14:14:55;;;;;;;;;13.00;12.00;;;;;26.07;36.66;101304.97;5017658;28;46380;-75
2022/05/03 14:17:21;;;;;;;;;13.67;11.00;;;;;26.10;36.47;101310.91;5045358;28;45493;-75
2022/05/03 14:19:46;;;;;;;;;14.00;11.67;;;;;26.18;36.50;101318.19;5066575;27;50216;-73
2022/05/03 14:22:12;;;;;;;;;10.00;9.33;;;;;26.24;36.81;101316.66;5071384;27;46503;-73
2022/05/03 14:24:37;;;;;;;;;15.00;13.33;;;;;26.28;36.52;101315.34;5072364;27;48340;-73
2022/05/03 14:27:03;;;;;;;;;12.33;11.33;;;;;26.29;37.07;101317.84;5071687;27;46523;-71
2022/05/03 14:29:28;;;;;;;;;15.00;12.00;;;;;26.30;37.00;101325.03;5062234;27;45462;-72
2022/05/03 14:31:55;;;;;;;;;10.00;10.00;;;;;26.28;36.99;101324.31;5073969;27;45517;-72
2022/05/03 14:34:21;;;;;;;;;11.33;9.67;;;;;26.26;37.33;101318.22;5072036;27;45592;-73
2022/05/03 14:36:46;;;;;;;;;13.67;10.33;;;;;26.29;36.92;101319.75;5070943;27;45589;-72
2022/05/03 14:39:11;;;;;;;;;11.67;11.00;;;;;26.29;37.18;101309.69;5070762;27;45582;-73
2022/05/03 14:41:38;;;;;;;;;11.67;9.00;;;;;26.26;37.33;101310.06;5075423;27;48450;-74
2022/05/03 14:44:04;;;;;;;;;12.00;10.00;;;;;26.25;37.61;101310.22;5073249;27;45537;-74
2022/05/03 14:46:30;;;;;;;;;12.00;12.00;;;;;26.23;37.56;101304.09;5071759;27;46157;-74
2022/05/03 14:48:55;;;;;;;;;13.00;11.00;;;;;26.25;37.50;101310.22;5070626;27;45429;-74
2022/05/03 14:51:21;;;;;;;;;12.00;11.00;;;;;26.23;37.60;101304.91;5069111;27;52011;-73
2022/05/03 14:53:46;;;;;;;;;11.33;11.33;;;;;26.20;37.72;101309.88;5068104;27;48578;-72
2022/05/03 15:04:23;;;;;;;;;11.67;9.67;;;;;26.19;37.67;101303.56;5066946;27;47260;-72
2022/05/03 15:06:49;;;;;;;;;10.00;9.00;;;;;26.16;38.30;101299.31;5068774;27;46854;-72
2022/05/03 15:09:14;;;;;;;;;13.33;11.33;;;;;26.14;37.97;101308.69;5060558;27;52760;-72
2022/05/03 15:11:39;;;;;;;;;10.33;10.00;;;;;26.10;37.98;101305.47;5063058;27;53545;-72
2022/05/03 15:14:05;;;;;;;;;10.00;10.00;;;;;26.10;38.29;101305.47;5065646;27;46046;-72
2022/05/03 15:16:31;;;;;;;;;13.00;12.33;;;;;26.08;38.39;101302.06;5068191;27;45578;-73
2022/05/03 15:18:57;;;;;;;;;8.00;8.00;;;;;26.07;38.20;101299.53;5067749;27;45875;-72
2022/05/03 15:21:22;;;;;;;;;11.33;10.33;;;;;26.04;38.55;101303.44;5070921;27;45683;-72
2022/05/03 15:26:33;;;;;;;;;7.67;7.67;;;;;25.98;38.96;101313.13;5076584;27;45520;-72
2022/05/03 15:28:59;;;;;;;;;9.00;9.00;;;;;25.97;38.67;101297.84;5074561;28;45535;-73
2022/05/03 15:31:24;;;;;;;;;13.33;9.67;;;;;25.96;38.92;101295.28;5072698;27;45732;-74
2022/05/03 15:33:49;;;;;;;;;8.67;8.67;;;;;25.92;39.26;101295.63;5073412;27;46112;-72
2022/05/03 15:36:15;;;;;;;;;10.33;7.67;;;;;25.94;39.05;101294.63;5074482;27;45801;-73
2022/05/03 15:38:40;;;;;;;;;10.33;8.67;;;;;25.94;39.38;101297.34;5067893;27;45449;-72
2022/05/03 15:41:06;;;;;;;;;11.00;9.33;;;;;25.93;39.61;101291.03;5069866;27;45430;-72
2022/05/03 15:43:34;;;;;;;;;10.00;7.33;;;;;25.91;39.36;101293.06;5071665;27;46278;-72
2022/05/03 15:46:01;;;;;;;;;8.33;8.33;;;;;25.90;39.16;101288.66;5072985;27;45822;-72
2022/05/03 15:48:27;;;;;;;;;11.67;10.67;;;;;25.92;39.35;101294.78;5073710;27;45501;-72
2022/05/03 15:50:53;;;;;;;;;11.00;10.00;;;;;25.94;39.20;101295.44;5074998;27;45582;-72
2022/05/03 15:53:26;;;;;;;;;12.33;10.33;;;;;25.95;39.75;101296.31;5067567;27;45518;-73
2022/05/03 15:55:52;;;;;;;;;8.00;8.00;;;;;25.97;39.71;101299.69;5058941;27;45915;-73
2022/05/03 15:58:17;;;;;;;;;9.33;8.67;;;;;25.98;39.68;101299.53;5072373;27;45471;-74
2022/05/03 16:00:43;;;;;;;;;8.67;8.00;;;;;25.99;39.46;101295.78;5072647;27;45574;-72
2022/05/03 16:03:10;;;;;;;;;9.33;9.33;;;;;26.01;39.58;101299.19;5072229;27;45705;-72
2022/05/03 16:05:36;;;;;;;;;9.33;9.33;;;;;26.02;39.77;101303.59;5070825;27;45529;-73
2022/05/03 16:08:02;;;;;;;;;6.33;6.33;;;;;26.04;39.69;101298.00;5074983;27;45811;-73
2022/05/03 16:10:28;;;;;;;;;8.33;8.00;;;;;26.05;39.89;101300.56;5080655;27;45426;-73
2022/05/03 16:12:54;;;;;;;;;9.00;8.33;;;;;26.12;39.51;101295.25;5075388;27;46212;-73
2022/05/03 16:15:22;;;;;;;;;10.67;10.00;;;;;26.15;39.28;101292.19;5073179;27;51797;-75
2022/05/03 16:17:47;;;;;;;;;8.33;8.33;;;;;26.20;37.67;101307.16;5071420;27;47204;-75
2022/05/03 16:20:13;;;;;;;;;11.00;10.33;;;;;26.10;36.28;101302.75;5073186;27;45507;-75
2022/05/03 16:22:39;;;;;;;;;11.00;11.00;;;;;26.08;36.41;101298.50;5072628;27;47056;-75
2022/05/03 16:25:05;;;;;;;;;10.33;9.33;;;;;26.03;35.35;101288.97;5071360;27;45548;-73
2022/05/03 16:27:31;;;;;;;;;12.00;12.00;;;;;26.02;36.31;101294.59;5073170;27;45849;-73
2022/05/03 16:29:56;;;;;;;;;13.67;11.67;;;;;26.09;35.96;101302.91;5075314;27;45410;-73
2022/05/03 16:32:22;;;;;;;;;13.33;11.00;;;;;26.12;36.49;101305.28;5074063;27;45815;-73
2022/05/03 16:34:48;;;;;;;;;18.00;14.33;;;;;26.12;35.16;101303.41;5072424;27;45544;-73
2022/05/03 16:42:42;;;;;;;;;12.33;12.33;;;;;26.04;33.46;101296.09;5071892;28;45438;-74
2022/05/03 16:45:08;;;;;;;;;11.00;9.00;;;;;26.02;32.74;101300.03;5075200;27;45501;-73
2022/05/03 16:47:33;;;;;;;;;10.33;10.33;;;;;25.99;33.58;101289.50;5070452;28;47255;-74
2022/05/03 16:49:58;;;;;;;;;13.33;11.33;;;;;25.96;34.08;101298.88;5062366;27;46021;-73
2022/05/03 16:52:25;;;;;;;;;12.33;12.33;;;;;25.94;34.57;101290.00;5069295;28;45846;-73
2022/05/03 16:54:52;;;;;;;;;12.00;12.00;;;;;25.92;34.61;101294.78;5073497;28;45772;-73
2022/05/03 16:57:19;;;;;;;;;8.67;8.00;;;;;25.91;34.49;101296.63;5075366;27;45693;-73
2022/05/03 16:59:44;;;;;;;;;12.00;10.00;;;;;25.89;34.66;101282.38;5072911;28;45429;-73
2022/05/03 17:02:14;;;;;;;;;11.33;11.33;;;;;25.85;34.77;101294.63;5074730;27;45913;-73
2022/05/03 17:04:40;;;;;;;;;11.00;11.00;;;;;25.84;34.57;101298.38;5073527;27;45507;-72
2022/05/03 17:07:05;;;;;;;;;14.67;13.33;;;;;25.85;34.70;101286.47;5079931;27;45366;-73
2022/05/03 17:09:31;;;;;;;;;10.00;10.00;;;;;25.84;34.85;101286.63;5073731;27;45458;-72
2022/05/03 17:11:57;;;;;;;;;11.00;11.00;;;;;25.83;35.33;101288.47;5071749;27;46003;-74
2022/05/03 17:14:23;;;;;;;;;11.33;10.67;;;;;25.79;35.09;101293.41;5074949;27;45519;-73
2022/05/03 17:16:50;;;;;;;;;11.00;8.33;;;;;25.76;35.21;101296.47;5074511;27;45870;-75
2022/05/03 17:19:16;;;;;;;;;13.33;13.33;;;;;25.75;35.24;101297.50;5074097;28;45660;-73
2022/05/03 17:21:42;;;;;;;;;9.33;9.00;;;;;25.76;35.16;101299.19;5074940;27;46994;-74
2022/05/03 17:24:09;;;;;;;;;10.33;9.33;;;;;25.76;35.28;101298.34;5076719;27;45537;-73
2022/05/03 17:26:35;;;;;;;;;12.33;11.33;;;;;25.78;35.14;101299.03;5072358;27;45862;-73
2022/05/03 17:29:02;;;;;;;;;11.00;10.00;;;;;25.75;34.99;101308.38;5077616;27;45569;-74
2022/05/03 17:31:29;;;;;;;;;11.00;9.33;;;;;25.73;35.30;101301.41;5076622;27;45501;-74
2022/05/03 17:33:55;;;;;;;;;8.67;8.67;;;;;25.70;35.42;101308.03;5071271;27;45789;-73
2022/05/03 17:36:21;;;;;;;;;15.00;12.00;;;;;25.70;35.29;101307.19;5073614;27;45670;-74
2022/05/03 17:38:47;;;;;;;;;8.67;8.67;;;;;25.69;35.44;101297.31;5072735;28;45354;-74
2022/05/03 17:41:14;;;;;;;;;10.00;8.00;;;;;25.71;35.18;101307.00;5072669;27;47187;-73
2022/05/03 17:43:44;;;;;;;;;11.33;9.33;;;;;25.68;35.30;101299.22;5072046;27;45585;-73
2022/05/03 17:46:11;;;;;;;;;12.00;10.00;;;;;25.65;35.32;101303.13;5067945;27;45387;-76
